Time;durP1;ratioP1;P1;durP2;ratioP2;P2;SDS_P1;SDS_P2;PMS_P1;PMS_P2;Temp;Humidity;BMP_temperature;BMP_pressure;BME280_temperature;BME280_humidity;BME280_pressure;Samples;Min_cycle;Max_cycle;Signal;HPM_P1;HPM_P2
2023/09/13 00:01:58;;;;;;;8.98;5.47;;;;;;;;;;5039442;28;20426;-68
2023/09/13 00:04:24;;;;;;;6.15;4.80;;;;;;;;;;5034147;28;20128;-68
2023/09/13 00:06:51;;;;;;;6.93;4.97;;;;;;;;;;5033167;28;20051;-69
2023/09/13 00:09:18;;;;;;;7.55;4.85;;;;;;;;;;5047841;28;20141;-70
2023/09/13 00:11:46;;;;;;;6.75;3.78;;;;;;;;;;5048635;28;20045;-68
2023/09/13 00:14:12;;;;;;;4.90;3.80;;;;;;;;;;5044287;28;20076;-68
2023/09/13 00:16:40;;;;;;;5.55;3.97;;;;;;;;;;5046240;28;20056;-69
2023/09/13 00:19:07;;;;;;;4.50;3.28;;;;;;;;;;5049630;28;20041;-68
2023/09/13 00:21:34;;;;;;;5.88;3.53;;;;;;;;;;5038655;28;20468;-69
2023/09/13 00:24:00;;;;;;;7.57;3.90;;;;;;;;;;5042794;28;20077;-68
2023/09/13 00:26:27;;;;;;;3.92;3.30;;;;;;;;;;5037997;28;20132;-69
2023/09/13 00:28:55;;;;;;;5.00;3.60;;;;;;;;;;5043947;28;20557;-69
2023/09/13 00:31:21;;;;;;;4.90;3.08;;;;;;;;;;5045165;28;20045;-70
2023/09/13 00:33:48;;;;;;;5.45;3.10;;;;;;;;;;5052342;28;20133;-70
2023/09/13 00:36:15;;;;;;;6.22;3.63;;;;;;;;;;5044365;28;20153;-70
2023/09/13 00:38:41;;;;;;;4.43;3.67;;;;;;;;;;5052373;28;20140;-70
2023/09/13 00:41:08;;;;;;;5.90;3.65;;;;;;;;;;5052204;28;20045;-70
2023/09/13 00:43:34;;;;;;;4.10;3.65;;;;;;;;;;5052417;28;20067;-70
2023/09/13 00:46:05;;;;;;;5.60;3.75;;;;;;;;;;5052350;28;20056;-70
2023/09/13 00:48:35;;;;;;;5.07;3.90;;;;;;;;;;5052895;28;20080;-70
2023/09/13 00:51:02;;;;;;;4.60;3.28;;;;;;;;;;5052532;28;20049;-70
2023/09/13 00:53:31;;;;;;;6.63;3.63;;;;;;;;;;5052064;28;20127;-69
2023/09/13 00:55:58;;;;;;;5.10;3.72;;;;;;;;;;5044253;28;20414;-70
2023/09/13 00:58:26;;;;;;;4.57;3.55;;;;;;;;;;5052651;28;20131;-69
2023/09/13 01:00:54;;;;;;;5.20;3.65;;;;;;;;;;5051951;28;20049;-70
2023/09/13 01:03:23;;;;;;;4.28;3.83;;;;;;;;;;5051809;28;20316;-70
2023/09/13 01:05:52;;;;;;;5.05;4.28;;;;;;;;;;5052059;28;20110;-70
2023/09/13 01:08:19;;;;;;;5.95;4.40;;;;;;;;;;5035606;28;20080;-70
2023/09/13 01:10:46;;;;;;;5.32;3.53;;;;;;;;;;5051821;28;20059;-70
2023/09/13 01:13:12;;;;;;;4.15;3.67;;;;;;;;;;5051531;28;20084;-70
2023/09/13 01:15:47;;;;;;;4.57;4.03;;;;;;;;;;5052066;28;20542;-70
2023/09/13 01:18:22;;;;;;;6.07;3.85;;;;;;;;;;5051854;28;20411;-70
2023/09/13 01:21:07;;;;;;;5.38;3.78;;;;;;;;;;5042701;28;20132;-70
2023/09/13 01:24:00;;;;;;;9.18;4.30;;;;;;;;;;5045789;28;20087;-70
2023/09/13 01:26:52;;;;;;;5.88;4.25;;;;;;;;;;5046683;28;20128;-70
2023/09/13 01:29:21;;;;;;;7.15;4.32;;;;;;;;;;5040161;28;20055;-69
2023/09/13 01:31:48;;;;;;;5.75;4.30;;;;;;;;;;5047621;28;20140;-70
2023/09/13 01:34:15;;;;;;;5.25;4.63;;;;;;;;;;5051220;28;20049;-70
2023/09/13 01:36:42;;;;;;;6.70;4.97;;;;;;;;;;5051604;28;20045;-70
2023/09/13 01:39:08;;;;;;;6.50;5.20;;;;;;;;;;5043012;28;20526;-70
2023/09/13 01:41:40;;;;;;;7.40;4.93;;;;;;;;;;5042675;28;20461;-70
2023/09/13 01:44:08;;;;;;;6.53;4.72;;;;;;;;;;5040726;28;20414;-70
2023/09/13 01:46:39;;;;;;;8.15;4.93;;;;;;;;;;5045809;28;20518;-70
2023/09/13 01:49:07;;;;;;;6.95;5.30;;;;;;;;;;5042905;28;20132;-70
2023/09/13 01:51:34;;;;;;;5.85;4.68;;;;;;;;;;5043756;28;20156;-70
2023/09/13 01:54:00;;;;;;;7.70;5.07;;;;;;;;;;5048859;28;20414;-70
2023/09/13 01:56:27;;;;;;;6.00;5.28;;;;;;;;;;5045648;28;20045;-70
2023/09/13 01:58:53;;;;;;;7.07;5.10;;;;;;;;;;5047633;28;20049;-70
2023/09/13 02:01:20;;;;;;;6.50;5.60;;;;;;;;;;5041585;28;20569;-70
2023/09/13 02:03:48;;;;;;;9.45;5.90;;;;;;;;;;5050650;28;20130;-70
2023/09/13 02:06:15;;;;;;;11.45;5.88;;;;;;;;;;5041574;28;20475;-70
2023/09/13 02:08:42;;;;;;;9.88;5.97;;;;;;;;;;5050630;28;20132;-70
2023/09/13 02:11:10;;;;;;;9.98;6.38;;;;;;;;;;5042630;28;20045;-70
2023/09/13 02:13:37;;;;;;;7.68;6.00;;;;;;;;;;5050481;28;20128;-70
2023/09/13 02:16:04;;;;;;;11.18;7.20;;;;;;;;;;5050746;28;20055;-70
2023/09/13 02:18:31;;;;;;;7.28;6.25;;;;;;;;;;5051063;28;20462;-70
2023/09/13 02:20:59;;;;;;;11.70;6.60;;;;;;;;;;5049405;28;20132;-70
2023/09/13 02:23:26;;;;;;;9.95;7.13;;;;;;;;;;5037194;28;20456;-70
2023/09/13 02:25:52;;;;;;;10.90;6.82;;;;;;;;;;5047674;28;20132;-70
2023/09/13 02:28:19;;;;;;;7.38;6.32;;;;;;;;;;5046810;28;20136;-70
2023/09/13 02:30:47;;;;;;;9.90;6.70;;;;;;;;;;5045760;28;20048;-70
2023/09/13 02:33:13;;;;;;;9.23;5.97;;;;;;;;;;5049813;28;20048;-70
2023/09/13 02:35:40;;;;;;;10.73;6.13;;;;;;;;;;5050308;28;20465;-70
2023/09/13 02:38:08;;;;;;;7.70;5.85;;;;;;;;;;5047973;28;20045;-70
2023/09/13 02:40:35;;;;;;;7.65;6.45;;;;;;;;;;5036630;28;20072;-71
2023/09/13 02:43:01;;;;;;;9.27;6.72;;;;;;;;;;5041810;28;20128;-70
2023/09/13 02:45:29;;;;;;;9.02;6.22;;;;;;;;;;5050304;28;20131;-70
2023/09/13 02:47:56;;;;;;;8.73;6.65;;;;;;;;;;5048140;28;20049;-70
2023/09/13 02:50:22;;;;;;;10.20;7.10;;;;;;;;;;5038198;28;20128;-70
2023/09/13 02:52:49;;;;;;;10.43;7.00;;;;;;;;;;5046025;28;20136;-70
2023/09/13 02:55:17;;;;;;;11.95;7.40;;;;;;;;;;5041622;28;20132;-70
2023/09/13 02:57:43;;;;;;;11.27;6.97;;;;;;;;;;5049684;28;20045;-70
2023/09/13 03:00:11;;;;;;;11.77;7.60;;;;;;;;;;5049811;28;20051;-70
2023/09/13 03:02:37;;;;;;;9.68;7.10;;;;;;;;;;5049206;28;20128;-70
2023/09/13 03:05:06;;;;;;;12.32;7.75;;;;;;;;;;5044272;28;20566;-70
2023/09/13 03:07:33;;;;;;;11.00;7.00;;;;;;;;;;5044232;28;20048;-70
2023/09/13 03:09:59;;;;;;;9.88;7.13;;;;;;;;;;5050116;28;20140;-69
2023/09/13 03:12:27;;;;;;;10.98;7.28;;;;;;;;;;5044563;28;20136;-70
2023/09/13 03:14:55;;;;;;;10.40;7.32;;;;;;;;;;5046371;28;20153;-69
2023/09/13 03:17:22;;;;;;;10.20;7.35;;;;;;;;;;5042201;28;20136;-70
2023/09/13 03:19:48;;;;;;;12.18;7.47;;;;;;;;;;5049650;28;20144;-70
2023/09/13 03:22:15;;;;;;;9.40;6.97;;;;;;;;;;5037585;28;20562;-70
2023/09/13 03:24:41;;;;;;;10.32;7.20;;;;;;;;;;5045245;28;20048;-70
2023/09/13 03:27:08;;;;;;;12.95;8.00;;;;;;;;;;5049710;28;20132;-70
2023/09/13 03:29:36;;;;;;;18.58;8.43;;;;;;;;;;5049818;28;20132;-70
2023/09/13 03:32:03;;;;;;;11.48;8.05;;;;;;;;;;5048672;28;20049;-70
2023/09/13 03:34:30;;;;;;;10.70;7.47;;;;;;;;;;5049677;28;20136;-70
2023/09/13 03:36:56;;;;;;;13.32;7.47;;;;;;;;;;5049687;28;20049;-70
2023/09/13 03:39:25;;;;;;;11.90;8.57;;;;;;;;;;5045468;28;20077;-70
2023/09/13 03:41:52;;;;;;;13.15;8.57;;;;;;;;;;5045927;28;20410;-70
2023/09/13 03:44:18;;;;;;;10.68;7.88;;;;;;;;;;5045661;28;20044;-70
2023/09/13 03:46:46;;;;;;;10.32;7.70;;;;;;;;;;5053645;28;20041;-70
2023/09/13 03:49:13;;;;;;;11.05;7.47;;;;;;;;;;5053787;28;20056;-70
2023/09/13 03:51:39;;;;;;;11.50;8.30;;;;;;;;;;5053417;28;20052;-70
2023/09/13 03:54:06;;;;;;;10.77;8.05;;;;;;;;;;5044965;28;20132;-70
2023/09/13 03:56:33;;;;;;;10.43;7.53;;;;;;;;;;5053472;28;20132;-70
2023/09/13 03:59:00;;;;;;;9.65;7.35;;;;;;;;;;5053272;28;20053;-70
2023/09/13 04:01:27;;;;;;;10.52;7.82;;;;;;;;;;5044543;28;20410;-70
2023/09/13 04:03:54;;;;;;;11.75;8.18;;;;;;;;;;5053044;28;20451;-70
2023/09/13 04:06:21;;;;;;;9.93;7.72;;;;;;;;;;5053414;28;20132;-70
2023/09/13 04:08:48;;;;;;;11.95;8.35;;;;;;;;;;5045425;28;20041;-70
2023/09/13 04:11:13;;;;;;;12.63;9.15;;;;;;;;;;5052767;28;20471;-70
2023/09/13 04:13:40;;;;;;;10.90;7.43;;;;;;;;;;5052544;28;20099;-70
2023/09/13 04:16:08;;;;;;;10.40;7.95;;;;;;;;;;5053202;28;20468;-70
2023/09/13 04:18:34;;;;;;;11.40;9.02;;;;;;;;;;5053028;28;20048;-70
2023/09/13 04:21:03;;;;;;;12.93;8.13;;;;;;;;;;5052479;28;20052;-70
2023/09/13 04:23:30;;;;;;;11.40;9.07;;;;;;;;;;5052622;28;20056;-70
2023/09/13 04:25:56;;;;;;;12.15;9.13;;;;;;;;;;5052803;28;20052;-70
2023/09/13 04:28:23;;;;;;;13.70;9.48;;;;;;;;;;5052599;28;20059;-70
2023/09/13 04:30:49;;;;;;;10.27;7.32;;;;;;;;;;5052867;28;20049;-70
2023/09/13 04:33:16;;;;;;;12.25;7.85;;;;;;;;;;5052360;28;20045;-70
2023/09/13 04:35:43;;;;;;;11.07;8.30;;;;;;;;;;5045466;28;20132;-70
2023/09/13 04:38:10;;;;;;;10.57;8.27;;;;;;;;;;5043541;28;20409;-70
2023/09/13 04:40:41;;;;;;;9.63;7.95;;;;;;;;;;5052423;28;20044;-70
2023/09/13 04:43:23;;;;;;;9.63;7.28;;;;;;;;;;5051860;28;20055;-70
2023/09/13 04:45:50;;;;;;;13.43;7.22;;;;;;;;;;5044460;28;20041;-70
2023/09/13 04:48:17;;;;;;;11.43;7.05;;;;;;;;;;5052285;28;20048;-70
2023/09/13 04:50:43;;;;;;;10.05;7.28;;;;;;;;;;5052391;28;20048;-70
2023/09/13 04:53:11;;;;;;;15.20;8.32;;;;;;;;;;5048910;28;20144;-70
2023/09/13 04:55:38;;;;;;;10.15;7.05;;;;;;;;;;5046099;28;20482;-70
2023/09/13 04:58:05;;;;;;;9.63;6.82;;;;;;;;;;5050329;28;20069;-70
2023/09/13 05:00:31;;;;;;;7.78;6.90;;;;;;;;;;5040408;28;20045;-70
2023/09/13 05:02:58;;;;;;;9.43;7.18;;;;;;;;;;5048089;28;20237;-70
2023/09/13 05:05:24;;;;;;;11.23;7.88;;;;;;;;;;5045101;28;20045;-69
2023/09/13 05:07:53;;;;;;;8.40;6.60;;;;;;;;;;5051677;28;20049;-70
2023/09/13 05:10:21;;;;;;;11.30;7.45;;;;;;;;;;5052101;28;20090;-70
2023/09/13 05:12:48;;;;;;;12.38;7.13;;;;;;;;;;5051792;28;20567;-70
2023/09/13 05:15:15;;;;;;;12.05;7.25;;;;;;;;;;5043820;28;20388;-70
2023/09/13 05:17:42;;;;;;;9.52;7.43;;;;;;;;;;5045141;28;20045;-70
2023/09/13 05:20:09;;;;;;;9.63;7.25;;;;;;;;;;5051093;28;20499;-70
2023/09/13 05:22:36;;;;;;;10.50;7.20;;;;;;;;;;5051170;28;20080;-70
2023/09/13 05:25:02;;;;;;;13.52;7.70;;;;;;;;;;5043521;28;20129;-70
2023/09/13 05:27:30;;;;;;;12.63;7.57;;;;;;;;;;5051858;28;20132;-70
2023/09/13 05:29:57;;;;;;;11.48;7.70;;;;;;;;;;5051831;28;20041;-70
2023/09/13 05:32:23;;;;;;;9.57;7.13;;;;;;;;;;5051139;28;20064;-70
2023/09/13 05:34:50;;;;;;;12.90;7.72;;;;;;;;;;5051665;28;20049;-70
2023/09/13 05:37:17;;;;;;;9.25;7.25;;;;;;;;;;5043212;28;20057;-70
2023/09/13 05:39:43;;;;;;;9.30;7.68;;;;;;;;;;5043337;28;20129;-70
2023/09/13 05:42:10;;;;;;;11.65;7.35;;;;;;;;;;5050828;28;20417;-70
2023/09/13 05:44:38;;;;;;;10.35;7.40;;;;;;;;;;5045272;28;20053;-70
2023/09/13 05:47:05;;;;;;;11.15;7.25;;;;;;;;;;5049641;28;20055;-70
2023/09/13 05:49:31;;;;;;;11.30;7.03;;;;;;;;;;5043416;28;20132;-70
2023/09/13 05:51:58;;;;;;;9.15;7.60;;;;;;;;;;5050642;28;20114;-70
2023/09/13 05:54:25;;;;;;;9.45;6.75;;;;;;;;;;5051589;28;20041;-70
2023/09/13 05:56:55;;;;;;;14.80;7.00;;;;;;;;;;5051219;28;20495;-70
2023/09/13 05:59:21;;;;;;;9.48;7.03;;;;;;;;;;5051213;28;20132;-69
2023/09/13 06:01:49;;;;;;;11.20;6.78;;;;;;;;;;5050707;28;20071;-69
2023/09/13 06:04:16;;;;;;;9.27;6.53;;;;;;;;;;5042753;28;20131;-69
2023/09/13 06:06:43;;;;;;;7.95;6.35;;;;;;;;;;5042775;28;20049;-69
2023/09/13 06:09:09;;;;;;;9.13;5.95;;;;;;;;;;5051145;28;20517;-68
2023/09/13 06:11:36;;;;;;;10.88;6.20;;;;;;;;;;5047600;28;20132;-69
2023/09/13 06:14:07;;;;;;;10.27;6.75;;;;;;;;;;5048215;28;20053;-68
2023/09/13 06:16:33;;;;;;;9.85;6.55;;;;;;;;;;5043570;28;20079;-69
2023/09/13 06:19:01;;;;;;;9.63;6.00;;;;;;;;;;5040042;28;20080;-68
2023/09/13 06:21:28;;;;;;;7.45;5.40;;;;;;;;;;5037708;28;20128;-68
2023/09/13 06:23:55;;;;;;;10.57;6.30;;;;;;;;;;5029332;28;20128;-68
2023/09/13 06:26:21;;;;;;;8.45;5.80;;;;;;;;;;5036707;28;20136;-68
2023/09/13 06:28:48;;;;;;;6.45;5.30;;;;;;;;;;5029514;28;20136;-69
2023/09/13 06:31:14;;;;;;;7.85;5.93;;;;;;;;;;5032079;28;20502;-68
2023/09/13 06:33:41;;;;;;;7.65;6.00;;;;;;;;;;5039234;28;20491;-69
2023/09/13 06:36:09;;;;;;;8.68;5.55;;;;;;;;;;5039385;28;20045;-68
2023/09/13 06:38:36;;;;;;;11.82;6.78;;;;;;;;;;5048714;28;20330;-69
2023/09/13 06:41:02;;;;;;;11.32;6.50;;;;;;;;;;5041108;28;20419;-68
2023/09/13 06:43:29;;;;;;;11.15;5.75;;;;;;;;;;5039407;28;20045;-69
2023/09/13 06:45:56;;;;;;;8.88;6.05;;;;;;;;;;5030103;28;20132;-69
2023/09/13 06:48:23;;;;;;;7.05;5.47;;;;;;;;;;5038288;28;20040;-69
2023/09/13 06:50:49;;;;;;;12.48;5.68;;;;;;;;;;5038721;28;20144;-69
2023/09/13 06:53:17;;;;;;;7.75;5.75;;;;;;;;;;5030901;28;20048;-69
2023/09/13 06:55:44;;;;;;;9.18;5.78;;;;;;;;;;5046383;28;20090;-68
2023/09/13 06:58:11;;;;;;;7.57;5.40;;;;;;;;;;5043498;28;20573;-68
2023/09/13 07:00:39;;;;;;;7.82;5.80;;;;;;;;;;5036399;28;20505;-69
2023/09/13 07:03:08;;;;;;;7.13;5.18;;;;;;;;;;5032790;28;20094;-69
2023/09/13 07:05:34;;;;;;;18.02;5.78;;;;;;;;;;5039817;28;20053;-69
2023/09/13 07:08:01;;;;;;;9.30;5.97;;;;;;;;;;5038545;28;20240;-68
2023/09/13 07:10:29;;;;;;;10.43;6.07;;;;;;;;;;5034375;28;20105;-69
2023/09/13 07:12:57;;;;;;;9.00;5.60;;;;;;;;;;5033234;28;20045;-69
2023/09/13 07:15:24;;;;;;;8.20;5.45;;;;;;;;;;5027883;28;20046;-69
2023/09/13 07:17:51;;;;;;;10.60;6.15;;;;;;;;;;5030360;28;20468;-69
2023/09/13 07:20:18;;;;;;;9.63;5.90;;;;;;;;;;5038552;28;21548;-68
2023/09/13 07:22:44;;;;;;;8.50;6.22;;;;;;;;;;5042035;28;20045;-69
2023/09/13 07:25:11;;;;;;;9.20;6.40;;;;;;;;;;5039542;28;20137;-69
2023/09/13 07:27:39;;;;;;;12.20;6.07;;;;;;;;;;5039096;28;20145;-68
2023/09/13 07:30:09;;;;;;;9.52;6.13;;;;;;;;;;5037758;28;20051;-67
2023/09/13 07:32:36;;;;;;;8.77;6.18;;;;;;;;;;5038410;28;20510;-69
2023/09/13 07:35:04;;;;;;;12.77;6.22;;;;;;;;;;5035846;28;20056;-69
2023/09/13 07:37:31;;;;;;;10.20;6.35;;;;;;;;;;5035019;28;20080;-69
2023/09/13 07:39:58;;;;;;;7.85;5.90;;;;;;;;;;5048023;28;20052;-68
2023/09/13 07:42:24;;;;;;;10.38;6.55;;;;;;;;;;5042024;28;20051;-68
2023/09/13 07:44:52;;;;;;;9.70;6.28;;;;;;;;;;5049636;28;20048;-69
2023/09/13 07:47:19;;;;;;;9.48;6.60;;;;;;;;;;5041895;28;20045;-69
2023/09/13 07:49:46;;;;;;;10.10;7.00;;;;;;;;;;5033820;28;20133;-68
2023/09/13 07:52:14;;;;;;;9.23;6.93;;;;;;;;;;5028947;28;20136;-68
2023/09/13 07:54:40;;;;;;;10.27;7.63;;;;;;;;;;5044205;28;20053;-69
2023/09/13 07:57:07;;;;;;;9.90;6.55;;;;;;;;;;5041083;28;20464;-68
2023/09/13 07:59:34;;;;;;;10.93;6.95;;;;;;;;;;5043254;28;20137;-69
2023/09/13 08:02:03;;;;;;;11.80;6.85;;;;;;;;;;5046743;28;20485;-68
2023/09/13 08:04:30;;;;;;;9.77;7.00;;;;;;;;;;5046275;28;20491;-69
2023/09/13 08:06:56;;;;;;;10.90;7.68;;;;;;;;;;5048801;28;20049;-68
2023/09/13 08:09:23;;;;;;;12.95;7.78;;;;;;;;;;5040689;28;20080;-69
2023/09/13 08:11:50;;;;;;;10.18;7.10;;;;;;;;;;5048869;28;20080;-69
2023/09/13 08:14:17;;;;;;;9.48;7.07;;;;;;;;;;5049480;28;20059;-68
2023/09/13 08:16:44;;;;;;;9.45;6.35;;;;;;;;;;5049844;28;20534;-69
2023/09/13 08:19:12;;;;;;;10.73;6.75;;;;;;;;;;5040972;28;20096;-68
2023/09/13 08:21:38;;;;;;;6.97;6.25;;;;;;;;;;5042315;28;20049;-68
2023/09/13 08:24:06;;;;;;;7.25;5.75;;;;;;;;;;5035847;28;20054;-68
2023/09/13 08:26:32;;;;;;;9.02;5.82;;;;;;;;;;5035133;28;20136;-68
2023/09/13 08:29:03;;;;;;;7.30;5.72;;;;;;;;;;5039153;28;20141;-68
2023/09/13 08:31:29;;;;;;;11.05;5.53;;;;;;;;;;5046375;28;20049;-69
2023/09/13 08:33:56;;;;;;;8.73;5.60;;;;;;;;;;5050307;28;20513;-69
2023/09/13 08:36:24;;;;;;;8.50;5.22;;;;;;;;;;5032618;28;20167;-69
2023/09/13 08:38:51;;;;;;;6.18;5.25;;;;;;;;;;5049518;28;20566;-69
2023/09/13 08:41:17;;;;;;;7.10;5.15;;;;;;;;;;5041010;28;20052;-69
2023/09/13 08:43:45;;;;;;;7.47;4.88;;;;;;;;;;5047933;28;20132;-68
2023/09/13 08:46:14;;;;;;;7.82;4.85;;;;;;;;;;5052558;28;20120;-68
2023/09/13 08:48:42;;;;;;;8.10;4.78;;;;;;;;;;5052373;28;20132;-69
2023/09/13 08:51:10;;;;;;;5.82;4.15;;;;;;;;;;5044342;28;20132;-69
2023/09/13 08:53:40;;;;;;;5.10;4.07;;;;;;;;;;5037476;28;20049;-69
2023/09/13 08:56:07;;;;;;;5.15;3.60;;;;;;;;;;5032788;28;20414;-68
2023/09/13 08:58:35;;;;;;;6.28;3.70;;;;;;;;;;5038444;28;20445;-68
2023/09/13 09:01:09;;;;;;;4.95;3.45;;;;;;;;;;5043818;28;20049;-69
2023/09/13 09:03:35;;;;;;;9.40;3.90;;;;;;;;;;5043592;28;20490;-69
2023/09/13 09:06:04;;;;;;;4.40;3.47;;;;;;;;;;5044170;28;20113;-69
2023/09/13 09:08:31;;;;;;;4.95;3.38;;;;;;;;;;5052215;28;20391;-69
2023/09/13 09:11:00;;;;;;;4.55;3.30;;;;;;;;;;5035393;28;20044;-68
2023/09/13 09:13:29;;;;;;;3.60;2.83;;;;;;;;;;5031555;28;20050;-69
2023/09/13 09:15:57;;;;;;;5.50;3.35;;;;;;;;;;5035281;28;20351;-69
2023/09/13 09:18:26;;;;;;;4.30;3.17;;;;;;;;;;5043768;28;20193;-69
2023/09/13 09:20:53;;;;;;;4.55;3.25;;;;;;;;;;5035922;28;20124;-69
2023/09/13 09:23:21;;;;;;;6.32;3.08;;;;;;;;;;5032039;28;20400;-69
2023/09/13 09:25:50;;;;;;;3.85;2.80;;;;;;;;;;5046444;28;20550;-69
2023/09/13 09:28:18;;;;;;;5.43;2.85;;;;;;;;;;5046315;28;20129;-70
2023/09/13 09:30:45;;;;;;;3.92;2.72;;;;;;;;;;5034727;28;20041;-69
2023/09/13 09:33:12;;;;;;;3.08;2.78;;;;;;;;;;5035773;28;20052;-69
2023/09/13 09:35:38;;;;;;;2.55;2.30;;;;;;;;;;5038008;28;20061;-69
2023/09/13 09:38:21;;;;;;;3.60;2.30;;;;;;;;;;5038916;28;20076;-69
2023/09/13 09:40:48;;;;;;;3.38;2.47;;;;;;;;;;5047856;28;20056;-70
2023/09/13 09:43:14;;;;;;;2.55;2.22;;;;;;;;;;5044951;28;20144;-68
2023/09/13 09:45:42;;;;;;;3.30;2.35;;;;;;;;;;5034889;28;20092;-69
2023/09/13 09:48:10;;;;;;;4.03;2.65;;;;;;;;;;5032590;28;20055;-69
2023/09/13 09:50:37;;;;;;;5.93;2.45;;;;;;;;;;5048730;28;20123;-69
2023/09/13 09:53:09;;;;;;;2.72;2.10;;;;;;;;;;5031170;28;20050;-69
2023/09/13 09:55:37;;;;;;;3.65;2.58;;;;;;;;;;5029386;28;20200;-70
2023/09/13 09:58:04;;;;;;;2.38;2.08;;;;;;;;;;5031004;28;20135;-69
2023/09/13 10:00:31;;;;;;;6.57;2.30;;;;;;;;;;5038600;28;20049;-69
2023/09/13 10:02:59;;;;;;;2.40;2.00;;;;;;;;;;5032502;28;20136;-70
2023/09/13 10:05:25;;;;;;;3.85;2.30;;;;;;;;;;5032293;28;20052;-69
2023/09/13 10:07:54;;;;;;;3.05;2.55;;;;;;;;;;5029827;28;20079;-69
2023/09/13 10:10:30;;;;;;;4.53;2.80;;;;;;;;;;5046708;28;20084;-69
2023/09/13 10:12:57;;;;;;;5.38;2.50;;;;;;;;;;5031636;28;20128;-69
2023/09/13 10:15:25;;;;;;;5.47;2.60;;;;;;;;;;5028709;28;20132;-70
2023/09/13 10:17:55;;;;;;;2.83;2.42;;;;;;;;;;5030018;28;20134;-69
2023/09/13 10:20:24;;;;;;;2.80;2.30;;;;;;;;;;5043593;28;20041;-69
2023/09/13 10:22:55;;;;;;;3.25;2.25;;;;;;;;;;5044554;28;20136;-70
2023/09/13 10:25:24;;;;;;;3.58;2.53;;;;;;;;;;5037645;28;20406;-69
2023/09/13 10:27:54;;;;;;;3.05;2.30;;;;;;;;;;5033004;28;20132;-67
2023/09/13 10:30:24;;;;;;;5.32;2.50;;;;;;;;;;5033564;28;20065;-69
2023/09/13 10:32:56;;;;;;;3.30;2.20;;;;;;;;;;5040869;28;20045;-70
2023/09/13 10:35:28;;;;;;;3.83;2.38;;;;;;;;;;5033784;28;20037;-71
2023/09/13 10:38:03;;;;;;;2.30;1.73;;;;;;;;;;5030161;28;20406;-70
2023/09/13 10:40:38;;;;;;;1.92;1.73;;;;;;;;;;5041712;28;20045;-70
2023/09/13 10:43:05;;;;;;;2.58;1.98;;;;;;;;;;5038648;28;20053;-70
2023/09/13 10:45:32;;;;;;;4.10;1.75;;;;;;;;;;5032677;28;20086;-70
2023/09/13 10:48:01;;;;;;;3.58;2.30;;;;;;;;;;5038642;28;20052;-70
2023/09/13 10:50:29;;;;;;;3.53;2.25;;;;;;;;;;5040537;28;20521;-70
2023/09/13 10:52:57;;;;;;;2.30;1.70;;;;;;;;;;5030213;28;20037;-70
2023/09/13 10:55:25;;;;;;;3.13;2.63;;;;;;;;;;5049979;28;20135;-71
2023/09/13 10:57:53;;;;;;;3.65;2.17;;;;;;;;;;5049702;28;20055;-70
2023/09/13 11:00:21;;;;;;;4.50;2.30;;;;;;;;;;5041833;28;20128;-71
2023/09/13 11:02:48;;;;;;;3.75;2.22;;;;;;;;;;5047933;28;20041;-72
2023/09/13 11:05:15;;;;;;;3.80;2.28;;;;;;;;;;5038931;28;20732;-70
2023/09/13 11:07:46;;;;;;;3.60;2.22;;;;;;;;;;5037560;28;20037;-70
2023/09/13 11:10:14;;;;;;;2.17;1.90;;;;;;;;;;5041641;28;20053;-70
2023/09/13 11:12:44;;;;;;;2.30;2.08;;;;;;;;;;5030240;28;20049;-70
2023/09/13 11:15:14;;;;;;;2.42;2.08;;;;;;;;;;5043932;28;20049;-69
2023/09/13 11:17:43;;;;;;;3.50;1.92;;;;;;;;;;5043459;28;20124;-70
2023/09/13 11:20:24;;;;;;;2.30;1.90;;;;;;;;;;5045286;28;20044;-70
2023/09/13 11:23:08;;;;;;;3.20;2.00;;;;;;;;;;5046402;28;20124;-69
2023/09/13 11:25:37;;;;;;;2.65;1.80;;;;;;;;;;5035961;28;20140;-69
2023/09/13 11:28:08;;;;;;;2.63;2.22;;;;;;;;;;5034606;28;20136;-69
2023/09/13 11:30:48;;;;;;;2.38;1.98;;;;;;;;;;5037663;28;20417;-70
2023/09/13 11:33:15;;;;;;;2.35;2.00;;;;;;;;;;5036578;28;20049;-69
2023/09/13 11:35:43;;;;;;;3.50;1.90;;;;;;;;;;5045875;28;20132;-70
2023/09/13 11:38:11;;;;;;;2.53;1.85;;;;;;;;;;5034739;28;20041;-69
2023/09/13 11:40:38;;;;;;;2.42;2.13;;;;;;;;;;5044409;28;20132;-70
2023/09/13 11:43:05;;;;;;;4.88;2.20;;;;;;;;;;5036276;28;20493;-69
2023/09/13 11:45:35;;;;;;;2.70;2.38;;;;;;;;;;5030573;28;20088;-70
2023/09/13 11:48:04;;;;;;;4.60;2.42;;;;;;;;;;5039608;28;20045;-69
2023/09/13 11:50:42;;;;;;;3.15;2.00;;;;;;;;;;5038889;28;20079;-70
2023/09/13 11:53:14;;;;;;;3.17;2.10;;;;;;;;;;5030352;28;20050;-69
2023/09/13 11:55:44;;;;;;;2.80;2.00;;;;;;;;;;5035306;28;20438;-70
2023/09/13 11:58:15;;;;;;;2.53;1.85;;;;;;;;;;5034697;28;20133;-70
2023/09/13 12:00:42;;;;;;;2.58;2.13;;;;;;;;;;5031407;28;20057;-69
2023/09/13 12:03:09;;;;;;;4.70;2.00;;;;;;;;;;5032288;28;20073;-70
2023/09/13 12:05:38;;;;;;;3.80;2.17;;;;;;;;;;5036758;28;20499;-68
2023/09/13 12:08:20;;;;;;;2.70;1.95;;;;;;;;;;5038226;28;20061;-70
2023/09/13 12:10:49;;;;;;;2.88;2.10;;;;;;;;;;5042025;28;20044;-71
2023/09/13 12:13:16;;;;;;;3.47;1.90;;;;;;;;;;5041658;28;20348;-71
2023/09/13 12:15:58;;;;;;;2.15;1.70;;;;;;;;;;5042476;28;20123;-72
2023/09/13 12:18:25;;;;;;;2.40;2.08;;;;;;;;;;5033612;28;20041;-71
2023/09/13 12:20:52;;;;;;;2.85;1.90;;;;;;;;;;5040157;28;20048;-72
2023/09/13 12:23:20;;;;;;;2.20;1.98;;;;;;;;;;5036933;28;20128;-71
2023/09/13 12:25:47;;;;;;;5.00;2.30;;;;;;;;;;5044062;28;20504;-71
2023/09/13 12:28:26;;;;;;;3.55;2.03;;;;;;;;;;5033950;28;20602;-71
2023/09/13 12:30:53;;;;;;;3.22;1.90;;;;;;;;;;5034807;28;20049;-71
2023/09/13 12:33:20;;;;;;;2.75;2.00;;;;;;;;;;5033937;28;20159;-71
2023/09/13 12:35:48;;;;;;;4.15;1.95;;;;;;;;;;5041773;28;20041;-71
2023/09/13 12:38:16;;;;;;;3.80;2.15;;;;;;;;;;5034699;28;20060;-71
2023/09/13 12:40:50;;;;;;;2.83;1.90;;;;;;;;;;5036416;28;20044;-71
2023/09/13 12:43:16;;;;;;;3.35;2.05;;;;;;;;;;5038132;28;20103;-71
2023/09/13 12:45:43;;;;;;;3.33;2.20;;;;;;;;;;5046691;28;20048;-71
2023/09/13 12:48:10;;;;;;;4.72;2.22;;;;;;;;;;5048865;28;20044;-71
2023/09/13 12:50:36;;;;;;;3.83;2.00;;;;;;;;;;5031232;28;20052;-71
2023/09/13 12:53:04;;;;;;;3.65;1.85;;;;;;;;;;5031830;28;20475;-71
2023/09/13 12:55:30;;;;;;;2.83;1.92;;;;;;;;;;5038052;28;20042;-71
2023/09/13 12:58:04;;;;;;;2.80;2.13;;;;;;;;;;5032212;28;20045;-71
2023/09/13 13:00:31;;;;;;;4.53;2.05;;;;;;;;;;5043393;28;20491;-71
2023/09/13 13:02:58;;;;;;;2.88;2.05;;;;;;;;;;5036366;28;20053;-71
2023/09/13 13:05:25;;;;;;;4.20;2.17;;;;;;;;;;5032945;28;20048;-72
2023/09/13 13:07:52;;;;;;;2.90;1.95;;;;;;;;;;5032096;28;20050;-72
2023/09/13 13:10:19;;;;;;;2.80;2.33;;;;;;;;;;5036319;28;20412;-72
2023/09/13 13:12:45;;;;;;;2.38;1.92;;;;;;;;;;5036580;28;20132;-72
2023/09/13 13:15:13;;;;;;;3.90;2.05;;;;;;;;;;5042736;28;20057;-72
2023/09/13 13:17:40;;;;;;;4.15;2.33;;;;;;;;;;5041377;28;20128;-72
2023/09/13 13:20:07;;;;;;;4.78;2.08;;;;;;;;;;5033473;28;20049;-72
2023/09/13 13:22:34;;;;;;;3.30;2.10;;;;;;;;;;5045485;28;20057;-72
2023/09/13 13:25:00;;;;;;;2.30;2.10;;;;;;;;;;5031659;28;20045;-71
2023/09/13 13:27:28;;;;;;;3.17;1.90;;;;;;;;;;5031661;28;20132;-71
2023/09/13 13:29:55;;;;;;;2.85;1.80;;;;;;;;;;5031603;28;20057;-71
2023/09/13 13:32:23;;;;;;;2.30;1.90;;;;;;;;;;5031056;28;20042;-72
2023/09/13 13:34:51;;;;;;;2.97;2.25;;;;;;;;;;5031698;28;20060;-72
2023/09/13 13:37:19;;;;;;;3.67;2.20;;;;;;;;;;5031662;28;20048;-71
2023/09/13 13:39:46;;;;;;;2.22;1.80;;;;;;;;;;5043911;28;20145;-72
2023/09/13 13:42:12;;;;;;;2.67;1.92;;;;;;;;;;5030478;28;20092;-71
2023/09/13 13:44:39;;;;;;;3.22;2.28;;;;;;;;;;5030982;28;20539;-72
2023/09/13 13:47:05;;;;;;;2.95;2.08;;;;;;;;;;5031401;28;20478;-72
2023/09/13 13:49:33;;;;;;;3.17;2.00;;;;;;;;;;5034675;28;20088;-71
2023/09/13 13:52:00;;;;;;;5.07;2.33;;;;;;;;;;5045239;28;20087;-72
2023/09/13 13:54:27;;;;;;;2.88;2.30;;;;;;;;;;5030585;28;20167;-72
2023/09/13 13:56:53;;;;;;;4.63;2.10;;;;;;;;;;5030203;28;20069;-72
2023/09/13 13:59:20;;;;;;;2.88;2.08;;;;;;;;;;5038598;28;20048;-72
2023/09/13 14:01:47;;;;;;;2.55;2.00;;;;;;;;;;5037970;28;20140;-72
2023/09/13 14:04:14;;;;;;;2.45;2.03;;;;;;;;;;5046828;28;20119;-72
2023/09/13 14:06:44;;;;;;;3.47;2.13;;;;;;;;;;5038753;28;20495;-72
2023/09/13 14:09:12;;;;;;;3.08;2.08;;;;;;;;;;5036629;28;20037;-72
2023/09/13 14:11:40;;;;;;;2.47;1.90;;;;;;;;;;5030343;28;20056;-71
2023/09/13 14:14:07;;;;;;;3.17;2.10;;;;;;;;;;5030142;28;20132;-72
2023/09/13 14:16:33;;;;;;;3.78;2.17;;;;;;;;;;5039051;28;20483;-71
2023/09/13 14:19:00;;;;;;;3.33;2.10;;;;;;;;;;5038948;28;20418;-72
2023/09/13 14:21:27;;;;;;;5.57;2.15;;;;;;;;;;5030509;28;20049;-72
2023/09/13 14:23:55;;;;;;;3.75;2.45;;;;;;;;;;5038285;28;20124;-72
2023/09/13 14:26:21;;;;;;;2.25;1.90;;;;;;;;;;5034170;28;20045;-71
2023/09/13 14:28:48;;;;;;;3.30;2.40;;;;;;;;;;5037543;28;20128;-72
2023/09/13 14:31:15;;;;;;;3.58;2.22;;;;;;;;;;5038494;28;20132;-71
2023/09/13 14:33:42;;;;;;;3.65;2.15;;;;;;;;;;5037968;28;20407;-72
2023/09/13 14:36:09;;;;;;;3.72;2.35;;;;;;;;;;5036628;28;20045;-72
2023/09/13 14:38:35;;;;;;;4.55;2.20;;;;;;;;;;5041191;28;20041;-72
2023/09/13 14:41:03;;;;;;;2.08;1.83;;;;;;;;;;5040181;28;20132;-72
2023/09/13 14:43:30;;;;;;;2.50;1.92;;;;;;;;;;5034876;28;20045;-72
2023/09/13 14:45:57;;;;;;;2.47;2.10;;;;;;;;;;5028294;28;20140;-72